sensor_id;sensor_type;location;lat;lon;timestamp;pressure;altitude;pressure_sealevel;temperature;humidity
75298;BME280;63896;45.990;18.688;2023-03-20T00:00:40;100844.13;;;12.32;52.75
75298;BME280;63896;45.990;18.688;2023-03-20T00:03:44;100837.72;;;12.40;52.60
75298;BME280;63896;45.990;18.688;2023-03-20T00:06:48;100834.88;;;12.41;52.75
75298;BME280;63896;45.990;18.688;2023-03-20T00:09:51;100840.06;;;12.30;53.39
75298;BME280;63896;45.990;18.688;2023-03-20T00:12:54;100836.63;;;12.23;53.81
75298;BME280;63896;45.990;18.688;2023-03-20T00:15:58;100836.50;;;12.11;54.34
75298;BME280;63896;45.990;18.688;2023-03-20T00:19:03;100846.75;;;12.01;54.41
75298;BME280;63896;45.990;18.688;2023-03-20T00:22:07;100850.47;;;11.93;55.15
75298;BME280;63896;45.990;18.688;2023-03-20T00:25:19;100848.31;;;11.77;55.84
75298;BME280;63896;45.990;18.688;2023-03-20T00:28:36;100834.19;;;11.77;55.49
75298;BME280;63896;45.990;18.688;2023-03-20T00:31:42;100833.59;;;11.68;56.11
75298;BME280;63896;45.990;18.688;2023-03-20T00:34:46;100830.97;;;11.55;57.82
75298;BME280;63896;45.990;18.688;2023-03-20T00:37:50;100826.31;;;11.37;58.56
75298;BME280;63896;45.990;18.688;2023-03-20T00:40:53;100831.25;;;11.21;58.95
75298;BME280;63896;45.990;18.688;2023-03-20T00:44:16;100833.94;;;11.01;60.08
75298;BME280;63896;45.990;18.688;2023-03-20T00:47:22;100824.56;;;10.92;59.79
75298;BME280;63896;45.990;18.688;2023-03-20T00:50:27;100819.25;;;10.79;60.99
75298;BME280;63896;45.990;18.688;2023-03-20T00:53:33;100818.22;;;10.67;60.98
75298;BME280;63896;45.990;18.688;2023-03-20T00:56:41;100812.94;;;10.54;61.65
75298;BME280;63896;45.990;18.688;2023-03-20T01:00:12;100813.94;;;10.52;62.04
75298;BME280;63896;45.990;18.688;2023-03-20T01:03:24;100816.78;;;10.51;61.63
75298;BME280;63896;45.990;18.688;2023-03-20T01:06:27;100808.84;;;10.44;61.88
75298;BME280;63896;45.990;18.688;2023-03-20T01:09:33;100804.97;;;10.40;61.52
75298;BME280;63896;45.990;18.688;2023-03-20T01:12:37;100809.25;;;10.35;62.46
75298;BME280;63896;45.990;18.688;2023-03-20T01:15:42;100805.34;;;10.50;61.96
75298;BME280;63896;45.990;18.688;2023-03-20T01:18:46;100800.47;;;10.34;62.05
75298;BME280;63896;45.990;18.688;2023-03-20T01:21:49;100803.50;;;10.31;62.83
75298;BME280;63896;45.990;18.688;2023-03-20T01:24:52;100803.50;;;10.31;62.47
75298;BME280;63896;45.990;18.688;2023-03-20T01:27:55;100799.44;;;10.48;62.31
75298;BME280;63896;45.990;18.688;2023-03-20T01:31:00;100797.63;;;10.56;62.13
75298;BME280;63896;45.990;18.688;2023-03-20T01:34:05;100796.41;;;10.38;62.70
75298;BME280;63896;45.990;18.688;2023-03-20T01:37:11;100797.38;;;10.18;62.74
75298;BME280;63896;45.990;18.688;2023-03-20T01:40:38;100802.84;;;10.10;63.26
75298;BME280;63896;45.990;18.688;2023-03-20T01:43:45;100801.19;;;10.02;64.11
75298;BME280;63896;45.990;18.688;2023-03-20T01:46:51;100800.81;;;10.12;63.71
75298;BME280;63896;45.990;18.688;2023-03-20T01:53:24;100799.75;;;9.99;64.21
75298;BME280;63896;45.990;18.688;2023-03-20T01:56:38;100795.66;;;9.90;64.66
75298;BME280;63896;45.990;18.688;2023-03-20T01:59:48;100801.53;;;9.86;64.86
75298;BME280;63896;45.990;18.688;2023-03-20T02:02:52;100800.31;;;9.82;65.14
75298;BME280;63896;45.990;18.688;2023-03-20T02:06:26;100807.41;;;9.75;65.04
75298;BME280;63896;45.990;18.688;2023-03-20T02:09:46;100806.34;;;9.63;65.68
75298;BME280;63896;45.990;18.688;2023-03-20T02:12:57;100809.59;;;9.58;65.78
75298;BME280;63896;45.990;18.688;2023-03-20T02:16:11;100811.22;;;9.59;65.71
75298;BME280;63896;45.990;18.688;2023-03-20T02:20:01;100808.78;;;9.57;65.91
75298;BME280;63896;45.990;18.688;2023-03-20T02:37:01;100801.81;;;9.50;66.05
75298;BME280;63896;45.990;18.688;2023-03-20T02:40:35;100798.94;;;9.45;66.32
75298;BME280;63896;45.990;18.688;2023-03-20T02:47:03;100803.59;;;9.43;66.62
75298;BME280;63896;45.990;18.688;2023-03-20T02:50:15;100812.59;;;9.42;66.46
75298;BME280;63896;45.990;18.688;2023-03-20T02:56:40;100805.16;;;9.31;66.75
75298;BME280;63896;45.990;18.688;2023-03-20T03:00:05;100795.03;;;9.34;66.99
75298;BME280;63896;45.990;18.688;2023-03-20T03:03:26;100802.56;;;9.37;67.01
75298;BME280;63896;45.990;18.688;2023-03-20T03:06:35;100807.06;;;9.37;66.83
75298;BME280;63896;45.990;18.688;2023-03-20T03:09:47;100803.34;;;9.31;67.01
75298;BME280;63896;45.990;18.688;2023-03-20T03:12:53;100805.13;;;9.24;67.33
75298;BME280;63896;45.990;18.688;2023-03-20T03:16:02;100813.47;;;9.21;67.79
75298;BME280;63896;45.990;18.688;2023-03-20T03:19:15;100814.00;;;9.03;68.36
75298;BME280;63896;45.990;18.688;2023-03-20T03:22:20;100812.66;;;8.93;68.58
75298;BME280;63896;45.990;18.688;2023-03-20T03:25:28;100821.19;;;8.88;68.76
75298;BME280;63896;45.990;18.688;2023-03-20T03:28:45;100823.41;;;8.85;68.64
75298;BME280;63896;45.990;18.688;2023-03-20T03:31:50;100818.25;;;8.77;68.94
75298;BME280;63896;45.990;18.688;2023-03-20T03:34:54;100821.72;;;8.77;69.11
75298;BME280;63896;45.990;18.688;2023-03-20T03:41:33;100820.03;;;8.70;68.83
75298;BME280;63896;45.990;18.688;2023-03-20T03:44:47;100819.22;;;8.48;70.00
75298;BME280;63896;45.990;18.688;2023-03-20T03:48:13;100818.41;;;8.26;70.62
75298;BME280;63896;45.990;18.688;2023-03-20T03:51:28;100821.16;;;8.18;70.83
75298;BME280;63896;45.990;18.688;2023-03-20T03:54:42;100820.84;;;8.06;71.51
75298;BME280;63896;45.990;18.688;2023-03-20T03:58:14;100821.31;;;7.95;71.84
75298;BME280;63896;45.990;18.688;2023-03-20T04:01:19;100824.31;;;7.92;72.17
75298;BME280;63896;45.990;18.688;2023-03-20T04:04:25;100822.16;;;7.81;72.32
75298;BME280;63896;45.990;18.688;2023-03-20T04:07:28;100829.19;;;7.74;72.08
75298;BME280;63896;45.990;18.688;2023-03-20T04:10:32;100825.81;;;7.65;73.16
75298;BME280;63896;45.990;18.688;2023-03-20T04:13:35;100827.03;;;7.63;73.47
75298;BME280;63896;45.990;18.688;2023-03-20T04:16:38;100833.94;;;7.64;73.05
75298;BME280;63896;45.990;18.688;2023-03-20T04:19:41;100836.59;;;7.64;73.52
75298;BME280;63896;45.990;18.688;2023-03-20T04:22:44;100839.78;;;7.59;73.15
75298;BME280;63896;45.990;18.688;2023-03-20T04:25:49;100827.94;;;7.55;73.10
75298;BME280;63896;45.990;18.688;2023-03-20T04:28:52;100828.75;;;7.56;73.41
75298;BME280;63896;45.990;18.688;2023-03-20T04:32:15;100826.56;;;7.59;73.47
75298;BME280;63896;45.990;18.688;2023-03-20T04:35:39;100820.91;;;7.62;73.24
75298;BME280;63896;45.990;18.688;2023-03-20T04:38:46;100823.38;;;7.64;72.79
75298;BME280;63896;45.990;18.688;2023-03-20T04:41:50;100829.13;;;7.68;73.05
75298;BME280;63896;45.990;18.688;2023-03-20T04:44:53;100826.72;;;7.73;72.94
75298;BME280;63896;45.990;18.688;2023-03-20T04:47:56;100832.66;;;7.75;73.23
75298;BME280;63896;45.990;18.688;2023-03-20T04:50:59;100828.63;;;7.79;73.14
75298;BME280;63896;45.990;18.688;2023-03-20T04:54:16;100841.31;;;8.04;72.36
75298;BME280;63896;45.990;18.688;2023-03-20T04:57:23;100842.22;;;8.11;71.84
75298;BME280;63896;45.990;18.688;2023-03-20T05:00:28;100830.91;;;8.18;71.77
75298;BME280;63896;45.990;18.688;2023-03-20T05:03:31;100839.78;;;8.10;71.82
75298;BME280;63896;45.990;18.688;2023-03-20T05:06:34;100842.47;;;8.17;71.40
75298;BME280;63896;45.990;18.688;2023-03-20T05:09:38;100843.97;;;8.40;71.04
75298;BME280;63896;45.990;18.688;2023-03-20T05:12:43;100850.97;;;8.48;70.58
75298;BME280;63896;45.990;18.688;2023-03-20T05:16:18;100842.34;;;8.39;70.50
75298;BME280;63896;45.990;18.688;2023-03-20T05:19:44;100849.84;;;8.57;69.98
75298;BME280;63896;45.990;18.688;2023-03-20T05:23:07;100849.50;;;8.67;69.74
75298;BME280;63896;45.990;18.688;2023-03-20T05:26:30;100849.19;;;8.76;69.17
75298;BME280;63896;45.990;18.688;2023-03-20T05:29:53;100858.53;;;8.72;69.63
75298;BME280;63896;45.990;18.688;2023-03-20T05:33:17;100872.91;;;8.91;68.77
75298;BME280;63896;45.990;18.688;2023-03-20T05:36:30;100875.44;;;8.99;68.10
75298;BME280;63896;45.990;18.688;2023-03-20T05:39:51;100871.81;;;9.06;67.91
75298;BME280;63896;45.990;18.688;2023-03-20T05:42:58;100874.69;;;9.12;67.79
75298;BME280;63896;45.990;18.688;2023-03-20T05:46:21;100868.22;;;9.14;67.68
75298;BME280;63896;45.990;18.688;2023-03-20T05:49:47;100873.78;;;9.26;67.84
75298;BME280;63896;45.990;18.688;2023-03-20T05:52:59;100864.63;;;9.28;67.46
75298;BME280;63896;45.990;18.688;2023-03-20T05:56:13;100873.50;;;9.42;67.02
75298;BME280;63896;45.990;18.688;2023-03-20T05:59:25;100871.69;;;9.49;67.00
75298;BME280;63896;45.990;18.688;2023-03-20T06:02:54;100880.75;;;9.61;66.83
75298;BME280;63896;45.990;18.688;2023-03-20T06:06:21;100874.50;;;9.82;65.96
75298;BME280;63896;45.990;18.688;2023-03-20T06:09:26;100872.34;;;9.98;65.90
75298;BME280;63896;45.990;18.688;2023-03-20T06:12:40;100879.31;;;10.13;65.53
75298;BME280;63896;45.990;18.688;2023-03-20T06:15:44;100875.16;;;10.38;64.72
75298;BME280;63896;45.990;18.688;2023-03-20T06:18:54;100877.84;;;10.58;64.31
75298;BME280;63896;45.990;18.688;2023-03-20T06:22:23;100882.34;;;10.77;64.04
75298;BME280;63896;45.990;18.688;2023-03-20T06:26:26;100872.34;;;10.92;63.93
75298;BME280;63896;45.990;18.688;2023-03-20T06:33:32;100886.19;;;11.33;62.65
75298;BME280;63896;45.990;18.688;2023-03-20T06:36:50;100876.34;;;11.47;61.80
75298;BME280;63896;45.990;18.688;2023-03-20T06:40:02;100882.25;;;11.69;61.24
75298;BME280;63896;45.990;18.688;2023-03-20T06:43:12;100885.31;;;11.85;61.05
75298;BME280;63896;45.990;18.688;2023-03-20T06:46:23;100888.50;;;12.01;60.93
75298;BME280;63896;45.990;18.688;2023-03-20T06:49:26;100892.69;;;12.21;60.33
75298;BME280;63896;45.990;18.688;2023-03-20T06:52:32;100891.91;;;12.52;59.57
75298;BME280;63896;45.990;18.688;2023-03-20T06:55:57;100889.97;;;12.97;58.49
75298;BME280;63896;45.990;18.688;2023-03-20T06:59:00;100879.66;;;13.50;57.39
75298;BME280;63896;45.990;18.688;2023-03-20T07:02:04;100884.47;;;13.60;56.56
75298;BME280;63896;45.990;18.688;2023-03-20T07:05:08;100869.22;;;13.67;56.04
75298;BME280;63896;45.990;18.688;2023-03-20T07:08:12;100863.94;;;13.60;56.04
75298;BME280;63896;45.990;18.688;2023-03-20T07:11:15;100863.66;;;13.32;57.28
75298;BME280;63896;45.990;18.688;2023-03-20T07:14:19;100851.84;;;13.21;57.51
75298;BME280;63896;45.990;18.688;2023-03-20T07:17:30;100844.53;;;12.92;59.52
75298;BME280;63896;45.990;18.688;2023-03-20T07:20:33;100851.53;;;13.36;58.15
75298;BME280;63896;45.990;18.688;2023-03-20T07:23:38;100861.78;;;13.32;58.79
75298;BME280;63896;45.990;18.688;2023-03-20T07:26:41;100852.63;;;13.47;57.63
75298;BME280;63896;45.990;18.688;2023-03-20T07:29:44;100858.53;;;13.85;56.64
75298;BME280;63896;45.990;18.688;2023-03-20T07:32:51;100847.31;;;14.43;54.43
75298;BME280;63896;45.990;18.688;2023-03-20T07:35:55;100851.25;;;15.05;52.86
75298;BME280;63896;45.990;18.688;2023-03-20T07:39:05;100851.00;;;15.30;52.21
75298;BME280;63896;45.990;18.688;2023-03-20T07:42:10;100853.13;;;15.27;52.04
75298;BME280;63896;45.990;18.688;2023-03-20T07:45:25;100855.31;;;15.19;52.45
75298;BME280;63896;45.990;18.688;2023-03-20T07:48:30;100850.78;;;14.96;52.99
75298;BME280;63896;45.990;18.688;2023-03-20T07:51:34;100855.91;;;14.86;54.01
75298;BME280;63896;45.990;18.688;2023-03-20T07:54:38;100864.63;;;14.93;53.21
75298;BME280;63896;45.990;18.688;2023-03-20T07:57:41;100871.00;;;15.15;52.99
75298;BME280;63896;45.990;18.688;2023-03-20T08:00:47;100878.09;;;14.98;54.17
75298;BME280;63896;45.990;18.688;2023-03-20T08:03:53;100874.69;;;14.79;55.17
75298;BME280;63896;45.990;18.688;2023-03-20T08:06:56;100884.09;;;14.41;55.79
75298;BME280;63896;45.990;18.688;2023-03-20T08:09:59;100891.91;;;14.24;56.76
75298;BME280;63896;45.990;18.688;2023-03-20T08:13:01;100902.31;;;13.96;56.88
75298;BME280;63896;45.990;18.688;2023-03-20T08:16:04;100898.03;;;14.13;56.53
75298;BME280;63896;45.990;18.688;2023-03-20T08:19:08;100908.38;;;14.39;56.51
75298;BME280;63896;45.990;18.688;2023-03-20T08:22:11;100914.38;;;14.35;56.21
75298;BME280;63896;45.990;18.688;2023-03-20T08:25:34;100903.78;;;15.69;52.96
75298;BME280;63896;45.990;18.688;2023-03-20T08:28:53;100906.56;;;15.86;52.01
75298;BME280;63896;45.990;18.688;2023-03-20T08:31:56;100906.75;;;16.36;50.18
75298;BME280;63896;45.990;18.688;2023-03-20T08:34:59;100902.16;;;16.93;48.93
75298;BME280;63896;45.990;18.688;2023-03-20T08:38:02;100896.69;;;18.15;45.84
75298;BME280;63896;45.990;18.688;2023-03-20T08:41:06;100896.34;;;19.23;43.25
75298;BME280;63896;45.990;18.688;2023-03-20T08:44:10;100901.50;;;20.39;40.33
75298;BME280;63896;45.990;18.688;2023-03-20T08:47:15;100895.59;;;21.58;37.52
75298;BME280;63896;45.990;18.688;2023-03-20T08:50:19;100900.91;;;22.43;36.66
75298;BME280;63896;45.990;18.688;2023-03-20T08:53:22;100897.69;;;22.79;34.60
75298;BME280;63896;45.990;18.688;2023-03-20T08:56:27;100903.50;;;22.63;35.06
75298;BME280;63896;45.990;18.688;2023-03-20T08:59:33;100904.56;;;22.18;36.20
75298;BME280;63896;45.990;18.688;2023-03-20T09:02:37;100903.75;;;21.43;37.15
75298;BME280;63896;45.990;18.688;2023-03-20T09:05:45;100915.56;;;21.52;37.40
75298;BME280;63896;45.990;18.688;2023-03-20T09:08:54;100905.53;;;21.68;36.99
75298;BME280;63896;45.990;18.688;2023-03-20T09:12:00;100894.97;;;21.92;36.61
75298;BME280;63896;45.990;18.688;2023-03-20T09:15:06;100905.84;;;21.66;36.79
75298;BME280;63896;45.990;18.688;2023-03-20T09:18:09;100891.66;;;23.50;33.81
75298;BME280;63896;45.990;18.688;2023-03-20T09:21:12;100897.50;;;23.62;33.50
75298;BME280;63896;45.990;18.688;2023-03-20T09:24:15;100885.59;;;25.27;30.69
75298;BME280;63896;45.990;18.688;2023-03-20T09:27:19;100887.66;;;24.14;32.40
75298;BME280;63896;45.990;18.688;2023-03-20T09:30:23;100885.91;;;23.57;33.61
75298;BME280;63896;45.990;18.688;2023-03-20T09:33:26;100889.19;;;24.57;31.96
75298;BME280;63896;45.990;18.688;2023-03-20T09:36:29;100889.09;;;25.73;29.66
75298;BME280;63896;45.990;18.688;2023-03-20T09:39:33;100888.28;;;25.59;29.79
75298;BME280;63896;45.990;18.688;2023-03-20T09:42:40;100877.00;;;26.42;29.25
75298;BME280;63896;45.990;18.688;2023-03-20T09:49:39;100875.81;;;25.58;30.23
75298;BME280;63896;45.990;18.688;2023-03-20T09:56:20;100868.34;;;24.90;31.02
75298;BME280;63896;45.990;18.688;2023-03-20T09:59:25;100873.44;;;24.41;31.08
75298;BME280;63896;45.990;18.688;2023-03-20T10:06:02;100862.72;;;24.87;31.23
75298;BME280;63896;45.990;18.688;2023-03-20T10:15:51;100856.13;;;27.75;26.88
75298;BME280;63896;45.990;18.688;2023-03-20T10:25:25;100853.88;;;27.77;26.62
75298;BME280;63896;45.990;18.688;2023-03-20T10:28:54;100835.41;;;30.08;23.42
75298;BME280;63896;45.990;18.688;2023-03-20T10:39:31;100839.13;;;31.10;22.25
75298;BME280;63896;45.990;18.688;2023-03-20T10:42:39;100840.19;;;30.52;22.37
75298;BME280;63896;45.990;18.688;2023-03-20T10:46:15;100842.81;;;29.02;24.05
75298;BME280;63896;45.990;18.688;2023-03-20T10:49:37;100837.41;;;27.42;26.48
75298;BME280;63896;45.990;18.688;2023-03-20T10:52:42;100835.94;;;27.93;26.04
75298;BME280;63896;45.990;18.688;2023-03-20T10:55:47;100831.53;;;26.43;27.83
75298;BME280;63896;45.990;18.688;2023-03-20T10:58:58;100842.22;;;24.76;30.24
75298;BME280;63896;45.990;18.688;2023-03-20T11:02:11;100831.63;;;23.38;33.25
75298;BME280;63896;45.990;18.688;2023-03-20T11:08:35;100831.63;;;22.86;33.37
75298;BME280;63896;45.990;18.688;2023-03-20T11:11:39;100830.16;;;22.98;33.80
75298;BME280;63896;45.990;18.688;2023-03-20T11:14:46;100825.66;;;22.55;34.14
75298;BME280;63896;45.990;18.688;2023-03-20T11:18:03;100820.19;;;22.94;34.13
75298;BME280;63896;45.990;18.688;2023-03-20T11:21:14;100827.94;;;23.29;32.88
75298;BME280;63896;45.990;18.688;2023-03-20T11:24:41;100828.41;;;22.84;34.00
75298;BME280;63896;45.990;18.688;2023-03-20T11:27:45;100833.91;;;24.53;31.45
75298;BME280;63896;45.990;18.688;2023-03-20T11:30:49;100832.81;;;24.54;30.98
75298;BME280;63896;45.990;18.688;2023-03-20T11:37:24;100815.16;;;23.35;32.79
75298;BME280;63896;45.990;18.688;2023-03-20T11:40:32;100829.72;;;22.52;34.19
75298;BME280;63896;45.990;18.688;2023-03-20T11:43:48;100826.41;;;21.67;35.93
75298;BME280;63896;45.990;18.688;2023-03-20T11:47:17;100823.31;;;21.30;36.97
75298;BME280;63896;45.990;18.688;2023-03-20T11:50:36;100830.03;;;22.02;36.15
75298;BME280;63896;45.990;18.688;2023-03-20T11:56:54;100818.31;;;22.55;33.36
75298;BME280;63896;45.990;18.688;2023-03-20T12:06:46;100796.66;;;22.26;34.25
75298;BME280;63896;45.990;18.688;2023-03-20T12:10:06;100801.56;;;23.16;32.26
75298;BME280;63896;45.990;18.688;2023-03-20T12:13:28;100793.78;;;26.05;27.90
75298;BME280;63896;45.990;18.688;2023-03-20T12:16:33;100796.25;;;27.61;25.94
75298;BME280;63896;45.990;18.688;2023-03-20T12:19:42;100786.38;;;27.91;23.66
75298;BME280;63896;45.990;18.688;2023-03-20T12:29:25;100789.50;;;24.95;25.87
75298;BME280;63896;45.990;18.688;2023-03-20T12:35:37;100786.00;;;23.26;28.92
75298;BME280;63896;45.990;18.688;2023-03-20T12:38:43;100784.78;;;22.56;28.83
75298;BME280;63896;45.990;18.688;2023-03-20T12:45:49;100782.25;;;22.70;29.54
75298;BME280;63896;45.990;18.688;2023-03-20T12:55:33;100780.78;;;22.15;30.21
75298;BME280;63896;45.990;18.688;2023-03-20T12:58:52;100779.91;;;21.75;30.96
75298;BME280;63896;45.990;18.688;2023-03-20T13:02:11;100776.66;;;20.94;32.26
75298;BME280;63896;45.990;18.688;2023-03-20T13:05:24;100781.84;;;20.55;32.94
75298;BME280;63896;45.990;18.688;2023-03-20T13:12:17;100772.34;;;20.12;34.26
75298;BME280;63896;45.990;18.688;2023-03-20T13:19:23;100778.81;;;20.16;34.54
75298;BME280;63896;45.990;18.688;2023-03-20T13:40:29;100768.31;;;20.15;33.79
75298;BME280;63896;45.990;18.688;2023-03-20T13:43:38;100763.69;;;19.90;34.59
75298;BME280;63896;45.990;18.688;2023-03-20T13:46:49;100767.47;;;19.94;33.74
75298;BME280;63896;45.990;18.688;2023-03-20T13:53:52;100766.50;;;19.43;35.84
75298;BME280;63896;45.990;18.688;2023-03-20T14:03:45;100762.06;;;19.17;36.35
75298;BME280;63896;45.990;18.688;2023-03-20T14:09:53;100764.97;;;19.05;37.10
75298;BME280;63896;45.990;18.688;2023-03-20T14:13:12;100766.03;;;19.04;36.64
75298;BME280;63896;45.990;18.688;2023-03-20T14:16:21;100764.13;;;19.04;36.63
75298;BME280;63896;45.990;18.688;2023-03-20T14:19:24;100759.81;;;18.98;36.77
75298;BME280;63896;45.990;18.688;2023-03-20T14:22:38;100753.44;;;18.68;36.54
75298;BME280;63896;45.990;18.688;2023-03-20T14:26:18;100756.31;;;18.56;36.56
75298;BME280;63896;45.990;18.688;2023-03-20T14:32:33;100757.03;;;18.83;35.97
75298;BME280;63896;45.990;18.688;2023-03-20T14:35:39;100750.84;;;18.83;36.13
75298;BME280;63896;45.990;18.688;2023-03-20T14:43:00;100755.34;;;18.72;36.40
75298;BME280;63896;45.990;18.688;2023-03-20T14:46:19;100754.53;;;18.72;36.36
75298;BME280;63896;45.990;18.688;2023-03-20T14:49:44;100755.34;;;18.72;36.74
75298;BME280;63896;45.990;18.688;2023-03-20T14:56:26;100759.88;;;18.67;37.33
75298;BME280;63896;45.990;18.688;2023-03-20T14:59:31;100756.59;;;18.60;37.94
75298;BME280;63896;45.990;18.688;2023-03-20T15:02:35;100753.25;;;18.47;37.94
75298;BME280;63896;45.990;18.688;2023-03-20T15:05:39;100751.78;;;18.30;38.55
75298;BME280;63896;45.990;18.688;2023-03-20T15:08:49;100745.97;;;18.43;38.08
75298;BME280;63896;45.990;18.688;2023-03-20T15:11:55;100753.91;;;18.28;38.32
75298;BME280;63896;45.990;18.688;2023-03-20T15:15:07;100756.53;;;18.23;38.84
75298;BME280;63896;45.990;18.688;2023-03-20T15:18:12;100748.22;;;18.24;38.14
75298;BME280;63896;45.990;18.688;2023-03-20T15:21:36;100755.69;;;18.17;38.40
75298;BME280;63896;45.990;18.688;2023-03-20T15:24:39;100756.19;;;18.14;38.72
75298;BME280;63896;45.990;18.688;2023-03-20T15:27:42;100751.59;;;17.83;39.47
75298;BME280;63896;45.990;18.688;2023-03-20T15:30:47;100761.91;;;17.69;40.24
75298;BME280;63896;45.990;18.688;2023-03-20T15:33:50;100756.22;;;17.66;40.35
75298;BME280;63896;45.990;18.688;2023-03-20T15:36:59;100759.72;;;17.66;40.61
75298;BME280;63896;45.990;18.688;2023-03-20T15:40:11;100749.38;;;17.75;40.54
75298;BME280;63896;45.990;18.688;2023-03-20T15:43:20;100757.97;;;17.55;40.76
75298;BME280;63896;45.990;18.688;2023-03-20T15:46:25;100750.97;;;17.54;40.87
75298;BME280;63896;45.990;18.688;2023-03-20T15:49:30;100762.25;;;17.34;40.88
75298;BME280;63896;45.990;18.688;2023-03-20T15:52:45;100774.13;;;17.17;45.16
75298;BME280;63896;45.990;18.688;2023-03-20T15:56:06;100769.97;;;16.87;48.08
75298;BME280;63896;45.990;18.688;2023-03-20T15:59:22;100771.59;;;16.72;49.62
75298;BME280;63896;45.990;18.688;2023-03-20T16:02:28;100777.31;;;16.47;51.12
75298;BME280;63896;45.990;18.688;2023-03-20T16:05:32;100775.31;;;16.37;51.75
75298;BME280;63896;45.990;18.688;2023-03-20T16:08:36;100776.41;;;16.25;52.26
75298;BME280;63896;45.990;18.688;2023-03-20T16:11:43;100784.19;;;16.09;53.10
75298;BME280;63896;45.990;18.688;2023-03-20T16:14:48;100783.81;;;15.89;53.89
75298;BME280;63896;45.990;18.688;2023-03-20T16:17:54;100789.31;;;15.83;54.39
75298;BME280;63896;45.990;18.688;2023-03-20T16:21:01;100793.06;;;15.70;54.87
75298;BME280;63896;45.990;18.688;2023-03-20T16:24:15;100791.59;;;15.62;55.28
75298;BME280;63896;45.990;18.688;2023-03-20T16:27:27;100799.75;;;15.44;56.04
75298;BME280;63896;45.990;18.688;2023-03-20T16:30:32;100805.47;;;15.36;56.74
75298;BME280;63896;45.990;18.688;2023-03-20T16:33:38;100813.59;;;15.30;56.86
75298;BME280;63896;45.990;18.688;2023-03-20T16:36:41;100807.81;;;15.21;57.27
75298;BME280;63896;45.990;18.688;2023-03-20T16:39:44;100810.91;;;15.18;57.65
75298;BME280;63896;45.990;18.688;2023-03-20T16:42:47;100819.06;;;15.11;57.70
75298;BME280;63896;45.990;18.688;2023-03-20T16:45:53;100813.97;;;14.98;58.55
75298;BME280;63896;45.990;18.688;2023-03-20T16:49:18;100815.47;;;14.94;58.82
75298;BME280;63896;45.990;18.688;2023-03-20T16:52:29;100830.91;;;14.92;58.96
75298;BME280;63896;45.990;18.688;2023-03-20T16:55:34;100817.19;;;14.77;59.53
75298;BME280;63896;45.990;18.688;2023-03-20T16:58:39;100827.53;;;14.62;60.15
75298;BME280;63896;45.990;18.688;2023-03-20T17:01:44;100836.09;;;14.64;59.98
75298;BME280;63896;45.990;18.688;2023-03-20T17:04:53;100824.81;;;14.50;60.70
75298;BME280;63896;45.990;18.688;2023-03-20T17:08:02;100833.88;;;14.49;60.96
75298;BME280;63896;45.990;18.688;2023-03-20T17:11:12;100834.19;;;14.41;61.39
75298;BME280;63896;45.990;18.688;2023-03-20T17:14:16;100841.84;;;14.38;61.57
75298;BME280;63896;45.990;18.688;2023-03-20T17:17:20;100833.25;;;14.36;61.59
75298;BME280;63896;45.990;18.688;2023-03-20T17:20:26;100845.16;;;14.33;62.25
75298;BME280;63896;45.990;18.688;2023-03-20T17:23:33;100843.19;;;14.28;62.55
75298;BME280;63896;45.990;18.688;2023-03-20T17:26:37;100844.44;;;14.26;62.81
75298;BME280;63896;45.990;18.688;2023-03-20T17:29:40;100847.38;;;14.24;63.13
75298;BME280;63896;45.990;18.688;2023-03-20T17:32:44;100850.78;;;14.13;63.94
75298;BME280;63896;45.990;18.688;2023-03-20T17:35:47;100852.06;;;14.11;64.31
75298;BME280;63896;45.990;18.688;2023-03-20T17:38:52;100851.13;;;14.05;64.70
75298;BME280;63896;45.990;18.688;2023-03-20T17:41:55;100856.50;;;13.99;64.91
75298;BME280;63896;45.990;18.688;2023-03-20T17:45:00;100852.09;;;13.93;65.34
75298;BME280;63896;45.990;18.688;2023-03-20T17:48:05;100854.41;;;13.89;65.51
75298;BME280;63896;45.990;18.688;2023-03-20T17:51:09;100853.44;;;13.83;65.76
75298;BME280;63896;45.990;18.688;2023-03-20T17:54:12;100858.31;;;13.87;65.47
75298;BME280;63896;45.990;18.688;2023-03-20T17:57:30;100860.59;;;13.83;65.74
75298;BME280;63896;45.990;18.688;2023-03-20T18:00:34;100864.03;;;13.72;66.13
75298;BME280;63896;45.990;18.688;2023-03-20T18:03:39;100857.06;;;13.71;66.26
75298;BME280;63896;45.990;18.688;2023-03-20T18:06:45;100859.97;;;13.69;66.19
75298;BME280;63896;45.990;18.688;2023-03-20T18:09:50;100861.91;;;13.62;66.44
75298;BME280;63896;45.990;18.688;2023-03-20T18:12:53;100857.38;;;13.63;66.29
75298;BME280;63896;45.990;18.688;2023-03-20T18:15:57;100861.28;;;13.60;66.50
75298;BME280;63896;45.990;18.688;2023-03-20T18:19:00;100860.47;;;13.60;66.41
75298;BME280;63896;45.990;18.688;2023-03-20T18:22:05;100867.97;;;13.51;66.88
75298;BME280;63896;45.990;18.688;2023-03-20T18:25:08;100866.16;;;13.45;67.25
75298;BME280;63896;45.990;18.688;2023-03-20T18:28:14;100861.50;;;13.41;67.25
75298;BME280;63896;45.990;18.688;2023-03-20T18:31:22;100873.88;;;13.35;67.94
75298;BME280;63896;45.990;18.688;2023-03-20T18:34:26;100873.25;;;13.33;68.02
75298;BME280;63896;45.990;18.688;2023-03-20T18:37:29;100867.84;;;13.21;68.62
75298;BME280;63896;45.990;18.688;2023-03-20T18:40:35;100877.16;;;13.12;69.18
75298;BME280;63896;45.990;18.688;2023-03-20T18:43:40;100869.38;;;13.11;69.15
75298;BME280;63896;45.990;18.688;2023-03-20T18:46:44;100866.00;;;12.97;69.53
75298;BME280;63896;45.990;18.688;2023-03-20T18:49:47;100864.13;;;12.98;69.58